Time;durP1;ratioP1;P1;durP2;ratioP2;P2;SDS_P1;SDS_P2;PMS_P1;PMS_P2;Temp;Humidity;BMP_temperature;BMP_pressure;BME280_temperature;BME280_humidity;BME280_pressure;Samples;Min_cycle;Max_cycle;Signal;HPM_P1;HPM_P2
2021/12/26 00:00:53;;;;;;;6.85;4.00;;;-5.40;99.90;;;;;;4989325;28;20046;-67
2021/12/26 00:03:20;;;;;;;8.90;4.32;;;-5.50;99.90;;;;;;4987867;28;20475;-66
2021/12/26 00:05:46;;;;;;;10.98;4.55;;;-5.50;99.90;;;;;;4989932;28;20046;-67
2021/12/26 00:08:12;;;;;;;8.02;4.50;;;-5.50;99.90;;;;;;4988173;28;20053;-67
2021/12/26 00:10:37;;;;;;;7.53;4.35;;;-5.60;99.90;;;;;;4989472;28;20042;-67
2021/12/26 00:13:03;;;;;;;6.82;4.20;;;-4.90;99.90;;;;;;4990299;28;20514;-67
2021/12/26 00:15:29;;;;;;;9.70;4.60;;;-4.80;99.90;;;;;;4987480;28;20057;-67
2021/12/26 00:17:55;;;;;;;9.10;4.40;;;-5.60;99.90;;;;;;4988542;28;20027;-67
2021/12/26 00:20:21;;;;;;;7.88;4.63;;;-5.60;99.90;;;;;;4989221;28;20054;-67
2021/12/26 00:22:47;;;;;;;6.40;4.40;;;-5.70;99.90;;;;;;4990506;28;20046;-67
2021/12/26 00:25:13;;;;;;;8.93;4.70;;;-5.70;99.90;;;;;;4991549;28;20042;-67
2021/12/26 00:27:39;;;;;;;6.40;4.20;;;-5.70;99.90;;;;;;4988618;28;20039;-67
2021/12/26 00:30:10;;;;;;;6.63;4.30;;;-5.70;99.90;;;;;;4983455;28;20493;-67
2021/12/26 00:32:35;;;;;;;8.25;4.85;;;-5.70;99.90;;;;;;4991153;28;20054;-67
2021/12/26 00:35:02;;;;;;;7.47;4.80;;;-5.80;99.90;;;;;;4988550;28;20459;-67
2021/12/26 00:37:27;;;;;;;9.43;4.82;;;-5.70;99.90;;;;;;4988113;28;20046;-67
2021/12/26 00:39:53;;;;;;;9.98;4.70;;;-5.70;99.90;;;;;;4988361;28;20388;-67
2021/12/26 00:42:19;;;;;;;10.00;4.55;;;-5.70;99.90;;;;;;4971855;28;20153;-67
2021/12/26 00:44:44;;;;;;;8.70;4.82;;;-5.50;99.90;;;;;;4987461;28;20046;-67
2021/12/26 00:47:12;;;;;;;9.25;4.57;;;-5.80;99.90;;;;;;4989105;28;20081;-67
2021/12/26 00:49:38;;;;;;;7.22;4.60;;;-5.80;99.90;;;;;;4987904;28;20196;-67
2021/12/26 00:52:05;;;;;;;9.38;5.07;;;-5.80;99.90;;;;;;4988600;28;20046;-67
2021/12/26 00:54:32;;;;;;;6.72;4.25;;;-5.80;99.90;;;;;;4986716;28;20046;-67
2021/12/26 00:56:58;;;;;;;8.65;4.45;;;-4.70;99.90;;;;;;4987757;28;20049;-66
2021/12/26 00:59:24;;;;;;;8.93;4.60;;;-5.80;99.90;;;;;;4988127;28;20039;-67
2021/12/26 01:01:52;;;;;;;7.93;4.60;;;-5.30;99.90;;;;;;4952954;28;20085;-67
2021/12/26 01:04:18;;;;;;;6.72;4.40;;;-5.80;99.90;;;;;;4970470;28;20089;-67
2021/12/26 01:06:44;;;;;;;8.95;4.50;;;-5.80;99.90;;;;;;4988355;28;20093;-67
2021/12/26 01:09:12;;;;;;;7.43;4.10;;;-5.70;99.90;;;;;;4990315;28;20535;-67
2021/12/26 01:11:42;;;;;;;7.57;5.07;;;-5.80;99.90;;;;;;4990280;28;20483;-67
2021/12/26 01:14:12;;;;;;;7.90;4.07;;;-4.10;99.90;;;;;;4992040;28;20088;-67
2021/12/26 01:16:39;;;;;;;6.53;3.88;;;-5.50;99.90;;;;;;4992297;28;20049;-67
2021/12/26 01:19:11;;;;;;;6.93;4.15;;;-5.80;99.90;;;;;;4990367;28;20076;-67
2021/12/26 01:21:37;;;;;;;7.80;4.18;;;-5.70;99.90;;;;;;4986334;28;20047;-67
2021/12/26 01:24:07;;;;;;;5.85;3.67;;;-5.70;99.90;;;;;;4981422;28;20509;-67
2021/12/26 01:26:33;;;;;;;5.75;3.65;;;-5.80;99.90;;;;;;4989412;28;20050;-67
2021/12/26 01:28:59;;;;;;;7.40;3.78;;;-5.20;99.90;;;;;;4990855;28;20046;-67
2021/12/26 01:31:25;;;;;;;8.32;4.13;;;-5.80;99.90;;;;;;4989908;28;20149;-67
2021/12/26 01:33:57;;;;;;;5.57;3.33;;;-5.80;99.90;;;;;;4992466;28;20092;-67
2021/12/26 01:36:23;;;;;;;5.60;3.22;;;-5.80;99.90;;;;;;4991477;28;20413;-67
2021/12/26 01:38:49;;;;;;;6.35;3.47;;;-5.80;99.90;;;;;;4991356;28;20062;-67
2021/12/26 01:41:17;;;;;;;6.53;3.50;;;-5.80;99.90;;;;;;4990393;28;20375;-67
2021/12/26 01:43:46;;;;;;;5.13;3.15;;;-5.80;99.90;;;;;;4991669;28;20065;-67
2021/12/26 01:46:13;;;;;;;3.78;2.78;;;-5.80;99.90;;;;;;4990196;28;20054;-67
2021/12/26 01:48:39;;;;;;;5.63;3.50;;;-6.00;99.90;;;;;;4991062;28;20046;-67
2021/12/26 01:51:05;;;;;;;5.63;3.60;;;-5.80;99.90;;;;;;4990672;28;20039;-67
2021/12/26 01:53:37;;;;;;;5.28;3.03;;;-5.80;99.90;;;;;;4989666;28;20041;-67
2021/12/26 01:56:09;;;;;;;4.95;3.35;;;-5.70;99.90;;;;;;4991126;28;20348;-67
2021/12/26 01:58:36;;;;;;;6.03;3.08;;;-5.80;99.90;;;;;;4989451;28;20054;-67
2021/12/26 02:01:11;;;;;;;6.30;3.25;;;-5.80;99.90;;;;;;4991362;28;20399;-66
2021/12/26 02:03:38;;;;;;;8.52;3.40;;;-5.80;99.90;;;;;;4977549;28;20492;-67
2021/12/26 02:06:06;;;;;;;6.10;3.20;;;-5.90;99.90;;;;;;4983414;28;20122;-67
2021/12/26 02:08:32;;;;;;;6.85;3.50;;;-5.90;99.90;;;;;;4981328;28;20053;-67
2021/12/26 02:11:02;;;;;;;7.40;3.70;;;-5.90;99.90;;;;;;4990580;28;20470;-66
2021/12/26 02:13:29;;;;;;;6.80;4.07;;;-5.30;99.90;;;;;;4987230;28;20062;-67
2021/12/26 02:15:56;;;;;;;6.63;3.60;;;-5.90;99.90;;;;;;4991882;28;20078;-66
2021/12/26 02:18:22;;;;;;;6.65;3.42;;;-6.00;99.90;;;;;;4989163;28;20080;-67
2021/12/26 02:23:37;;;;;;;5.03;3.13;;;-6.00;99.90;;;;;;4990192;28;20038;-67
2021/12/26 02:28:49;;;;;;;5.57;3.50;;;-6.00;99.90;;;;;;4990076;28;20046;-66
2021/12/26 02:31:16;;;;;;;7.53;3.35;;;-6.00;99.90;;;;;;4991358;28;20049;-66
2021/12/26 02:33:42;;;;;;;6.40;3.55;;;-6.00;99.90;;;;;;4992770;28;20057;-67
2021/12/26 02:36:08;;;;;;;6.22;3.45;;;-6.00;99.90;;;;;;4985750;28;20043;-66
2021/12/26 02:38:35;;;;;;;6.43;3.15;;;-6.00;99.90;;;;;;4984426;28;20054;-67
2021/12/26 02:41:03;;;;;;;5.68;3.40;;;-6.00;99.90;;;;;;4991103;28;20053;-66
2021/12/26 02:43:29;;;;;;;4.90;3.13;;;-5.70;99.90;;;;;;4989155;28;20080;-67
2021/12/26 02:45:55;;;;;;;5.82;3.63;;;-5.90;99.90;;;;;;4990396;28;20489;-67
2021/12/26 02:48:21;;;;;;;6.85;3.40;;;-5.90;99.90;;;;;;4990879;28;20133;-66
2021/12/26 02:50:52;;;;;;;4.75;3.30;;;-5.90;99.90;;;;;;4989935;28;20121;-67
2021/12/26 02:53:20;;;;;;;5.68;3.63;;;-5.90;99.90;;;;;;4988886;28;20096;-67
2021/12/26 02:55:52;;;;;;;6.20;3.17;;;-5.90;99.90;;;;;;4989404;28;20046;-67
2021/12/26 02:58:18;;;;;;;6.13;3.45;;;-5.90;99.90;;;;;;4989485;28;20138;-67
2021/12/26 03:00:48;;;;;;;5.22;3.47;;;-5.90;99.90;;;;;;4989360;28;20129;-67
2021/12/26 03:03:14;;;;;;;6.55;3.58;;;-5.90;99.90;;;;;;4989629;28;20523;-67
2021/12/26 03:05:42;;;;;;;5.75;3.10;;;-5.90;99.90;;;;;;4992774;28;20118;-67
2021/12/26 03:08:11;;;;;;;7.10;3.58;;;-5.90;99.90;;;;;;4991184;28;20605;-66
2021/12/26 03:10:37;;;;;;;7.50;3.30;;;-6.00;99.90;;;;;;4989067;28;20050;-67
2021/12/26 03:13:05;;;;;;;4.90;3.28;;;-6.00;99.90;;;;;;4988851;28;20323;-66
2021/12/26 03:15:33;;;;;;;6.45;3.28;;;-6.00;99.90;;;;;;4988059;28;20042;-67
2021/12/26 03:18:00;;;;;;;5.45;3.35;;;-6.00;99.90;;;;;;4990106;28;20650;-67
2021/12/26 03:20:31;;;;;;;6.45;3.40;;;-6.00;99.90;;;;;;4988668;28;20054;-67
2021/12/26 03:23:01;;;;;;;7.65;3.45;;;-6.00;99.90;;;;;;4988848;28;20050;-67
2021/12/26 03:25:28;;;;;;;5.93;3.30;;;-6.00;99.90;;;;;;4988254;28;20093;-67
2021/12/26 03:27:54;;;;;;;5.32;3.22;;;-6.00;99.90;;;;;;4989409;28;20046;-67
2021/12/26 03:30:24;;;;;;;5.72;3.22;;;-6.10;99.90;;;;;;4991233;28;20042;-67
2021/12/26 03:32:50;;;;;;;6.15;3.30;;;-6.00;99.90;;;;;;4988974;28;20056;-66
2021/12/26 03:35:20;;;;;;;5.30;3.10;;;-6.00;99.90;;;;;;4989815;28;20053;-67
2021/12/26 03:37:45;;;;;;;6.25;3.40;;;-6.00;99.90;;;;;;4988990;28;20048;-67
2021/12/26 03:40:12;;;;;;;5.85;3.30;;;-6.10;99.90;;;;;;4990165;28;20049;-67
2021/12/26 03:42:38;;;;;;;6.07;3.00;;;-5.70;99.90;;;;;;4988161;28;20058;-67
2021/12/26 03:45:07;;;;;;;4.82;3.05;;;-6.10;99.90;;;;;;4990823;28;20047;-66
2021/12/26 03:47:34;;;;;;;6.55;3.10;;;-6.00;99.90;;;;;;4988154;28;20054;-67
2021/12/26 03:50:00;;;;;;;5.38;3.22;;;-6.10;99.90;;;;;;4989630;28;20045;-66
2021/12/26 03:52:26;;;;;;;6.40;3.17;;;-6.00;99.90;;;;;;4988384;28;20061;-67
2021/12/26 03:54:53;;;;;;;7.43;3.00;;;-6.00;99.90;;;;;;4988607;28;20104;-67
2021/12/26 03:57:19;;;;;;;6.15;2.90;;;-5.40;99.90;;;;;;4988743;28;20050;-67
2021/12/26 03:59:44;;;;;;;5.32;2.85;;;-6.00;99.90;;;;;;4988886;28;20042;-67
2021/12/26 04:02:11;;;;;;;7.10;3.35;;;-6.00;99.90;;;;;;4989781;28;20050;-66
2021/12/26 04:04:36;;;;;;;6.50;3.08;;;-6.00;99.90;;;;;;4987618;28;20042;-67
2021/12/26 04:07:02;;;;;;;5.28;3.20;;;-6.00;99.90;;;;;;4989253;28;20061;-66
2021/12/26 04:09:28;;;;;;;5.65;3.20;;;-6.10;99.90;;;;;;4988607;28;20061;-67
2021/12/26 04:11:54;;;;;;;6.07;3.20;;;-6.10;99.90;;;;;;4977783;28;20149;-67
2021/12/26 04:14:19;;;;;;;6.35;3.20;;;-6.10;99.90;;;;;;4974539;28;20129;-67
2021/12/26 04:16:45;;;;;;;5.55;3.17;;;-6.10;99.90;;;;;;4989233;28;20143;-66
2021/12/26 04:19:14;;;;;;;6.05;3.38;;;-5.80;99.90;;;;;;4988384;28;20061;-67
2021/12/26 04:21:39;;;;;;;4.55;3.03;;;-6.10;99.90;;;;;;4987901;28;20050;-67
2021/12/26 04:24:05;;;;;;;5.35;2.83;;;-6.00;99.90;;;;;;4989035;28;20030;-66
2021/12/26 04:26:32;;;;;;;6.47;3.13;;;-6.00;99.90;;;;;;4988472;28;20139;-66
2021/12/26 04:28:57;;;;;;;5.07;3.00;;;-6.00;99.90;;;;;;4987837;28;20042;-67
2021/12/26 04:31:23;;;;;;;5.40;3.20;;;-6.00;99.90;;;;;;4989104;28;20492;-67
2021/12/26 04:33:49;;;;;;;5.78;3.00;;;-6.10;99.90;;;;;;4987269;28;20050;-67
2021/12/26 04:36:15;;;;;;;7.40;3.20;;;-6.10;99.90;;;;;;4978604;28;20034;-66
2021/12/26 04:38:42;;;;;;;7.40;3.03;;;-5.90;99.90;;;;;;4989137;28;20042;-67
2021/12/26 04:41:08;;;;;;;6.93;3.17;;;-6.20;99.90;;;;;;4986915;28;20042;-67
2021/12/26 04:43:36;;;;;;;6.15;3.42;;;-6.20;99.90;;;;;;4989569;28;20108;-66
2021/12/26 04:46:05;;;;;;;5.85;3.38;;;-6.20;99.90;;;;;;4992934;28;20108;-67
2021/12/26 04:48:32;;;;;;;4.68;2.80;;;-5.80;99.90;;;;;;4991579;28;20054;-67
2021/12/26 04:50:57;;;;;;;4.82;3.20;;;-6.30;99.90;;;;;;4975501;28;20498;-66
2021/12/26 04:53:23;;;;;;;4.97;3.03;;;-5.80;99.90;;;;;;4991502;28;20049;-67
2021/12/26 04:55:49;;;;;;;5.35;3.05;;;-6.20;99.90;;;;;;4991511;28;20149;-66
2021/12/26 04:58:14;;;;;;;5.07;3.00;;;-6.30;99.90;;;;;;4991237;28;20054;-67
2021/12/26 05:00:40;;;;;;;4.95;3.15;;;-6.30;99.90;;;;;;4991672;28;20137;-66
2021/12/26 05:03:08;;;;;;;6.45;3.30;;;-6.30;99.90;;;;;;4991985;28;20046;-67
2021/12/26 05:05:35;;;;;;;6.63;3.15;;;-6.30;99.90;;;;;;4992779;28;20054;-66
2021/12/26 05:08:01;;;;;;;4.78;3.00;;;-6.30;99.90;;;;;;4991564;28;20090;-66
2021/12/26 05:10:28;;;;;;;4.68;3.42;;;-6.30;99.90;;;;;;4991391;28;20042;-67
2021/12/26 05:12:56;;;;;;;5.38;2.90;;;-6.30;99.90;;;;;;4991580;28;20129;-66
2021/12/26 05:15:22;;;;;;;5.03;2.90;;;-6.30;99.90;;;;;;4991552;28;20402;-67
2021/12/26 05:17:49;;;;;;;8.85;3.13;;;-6.30;99.90;;;;;;4991705;28;20050;-67
2021/12/26 05:20:18;;;;;;;7.07;3.22;;;-6.30;99.90;;;;;;4991449;28;20057;-66
2021/12/26 05:22:44;;;;;;;5.47;3.13;;;-8.10;99.90;;;;;;4991520;28;20050;-66
2021/12/26 05:25:10;;;;;;;5.32;3.15;;;-6.30;99.90;;;;;;4991381;28;20394;-67
2021/12/26 05:27:36;;;;;;;5.50;3.25;;;-5.90;99.90;;;;;;4992008;28;20050;-67
2021/12/26 05:30:06;;;;;;;5.60;3.20;;;-6.30;99.90;;;;;;4991839;28;20054;-66
2021/12/26 05:32:32;;;;;;;6.03;3.80;;;-6.30;99.90;;;;;;4973721;28;20126;-67
2021/12/26 05:34:58;;;;;;;5.05;3.10;;;-6.40;99.90;;;;;;4992852;28;20134;-66
2021/12/26 05:37:24;;;;;;;5.10;3.10;;;-6.40;99.90;;;;;;4991359;28;20141;-66
2021/12/26 05:39:49;;;;;;;5.78;3.40;;;-6.40;99.90;;;;;;4991764;28;20050;-67
2021/12/26 05:42:16;;;;;;;4.90;3.10;;;-6.30;99.90;;;;;;4973705;28;20089;-67
2021/12/26 05:44:45;;;;;;;5.57;3.22;;;-6.30;99.90;;;;;;4990991;28;20524;-67
2021/12/26 05:47:12;;;;;;;5.80;3.30;;;-6.50;99.90;;;;;;4991753;28;20035;-67
2021/12/26 05:49:38;;;;;;;4.53;3.25;;;-6.30;99.90;;;;;;4991652;28;20076;-67
2021/12/26 05:52:05;;;;;;;5.18;2.90;;;-6.40;99.90;;;;;;4990468;28;20101;-66
2021/12/26 05:54:31;;;;;;;4.60;2.85;;;-6.30;99.90;;;;;;4990151;28;20065;-66
2021/12/26 05:56:56;;;;;;;6.80;3.25;;;-6.40;99.90;;;;;;4983818;28;20206;-66
2021/12/26 05:59:22;;;;;;;4.88;2.70;;;-6.40;99.90;;;;;;4988735;28;20050;-67
2021/12/26 06:01:48;;;;;;;6.72;3.00;;;-7.00;99.90;;;;;;4992139;28;20206;-66
2021/12/26 06:04:13;;;;;;;6.68;3.28;;;-6.40;99.90;;;;;;4988034;28;20031;-67
2021/12/26 06:06:39;;;;;;;5.18;2.90;;;-6.40;99.90;;;;;;4970649;28;20109;-66
2021/12/26 06:09:05;;;;;;;5.18;3.10;;;-6.00;99.90;;;;;;4979546;28;20543;-67
2021/12/26 06:11:31;;;;;;;5.45;2.95;;;-6.30;99.90;;;;;;4990445;28;20195;-66
2021/12/26 06:13:56;;;;;;;6.22;3.08;;;-6.30;99.90;;;;;;4989359;28;20145;-66
2021/12/26 06:16:22;;;;;;;5.30;3.35;;;-6.30;99.90;;;;;;4991349;28;20050;-66
2021/12/26 06:18:48;;;;;;;5.78;3.13;;;-6.30;99.90;;;;;;4990014;28;20062;-67
2021/12/26 06:21:14;;;;;;;6.32;3.33;;;-6.30;99.90;;;;;;4989959;28;20491;-66
2021/12/26 06:23:39;;;;;;;7.28;3.42;;;-6.30;99.90;;;;;;4990520;28;20062;-66
2021/12/26 06:26:05;;;;;;;5.85;3.50;;;-5.20;99.90;;;;;;4991993;28;20089;-67
2021/12/26 06:28:31;;;;;;;7.45;4.00;;;-6.30;99.90;;;;;;4989439;28;20429;-66
2021/12/26 06:30:56;;;;;;;4.72;3.00;;;-6.30;99.90;;;;;;4990367;28;20507;-66
2021/12/26 06:33:22;;;;;;;4.82;3.40;;;-6.30;99.90;;;;;;4990527;28;20042;-67
2021/12/26 06:35:49;;;;;;;6.93;3.33;;;-6.30;99.90;;;;;;4984496;28;20049;-67
2021/12/26 06:38:16;;;;;;;8.98;3.45;;;-7.90;99.90;;;;;;4986946;28;20122;-67
2021/12/26 06:40:41;;;;;;;6.88;3.53;;;-5.80;99.90;;;;;;4989315;28;20121;-66
2021/12/26 06:43:08;;;;;;;7.80;3.30;;;-6.30;99.90;;;;;;4991839;28;20129;-66
2021/12/26 06:45:34;;;;;;;4.65;3.15;;;-6.40;99.90;;;;;;4991193;28;20046;-66
2021/12/26 06:48:02;;;;;;;7.25;3.63;;;-6.30;99.90;;;;;;4988724;28;20589;-67
2021/12/26 06:50:28;;;;;;;8.05;3.88;;;-6.40;99.90;;;;;;4990738;28;20132;-66
2021/12/26 06:52:54;;;;;;;5.60;3.35;;;-6.40;99.90;;;;;;4985170;28;20046;-66
2021/12/26 06:55:20;;;;;;;6.70;3.38;;;-6.40;99.90;;;;;;4989640;28;20053;-67
2021/12/26 06:57:46;;;;;;;6.15;3.63;;;-6.40;99.90;;;;;;4990308;28;20042;-67
2021/12/26 07:00:15;;;;;;;7.40;3.25;;;-6.40;99.90;;;;;;4989254;28;20053;-67
2021/12/26 07:02:42;;;;;;;5.40;3.63;;;-6.40;99.90;;;;;;4988053;28;20662;-66
2021/12/26 07:05:08;;;;;;;7.15;3.88;;;-6.40;99.90;;;;;;4990100;28;20162;-66
2021/12/26 07:07:34;;;;;;;7.72;3.65;;;-6.40;99.90;;;;;;4989069;28;20080;-66
2021/12/26 07:10:00;;;;;;;5.13;3.20;;;-6.40;99.90;;;;;;4989617;28;20445;-66
2021/12/26 07:12:26;;;;;;;6.40;3.50;;;-6.40;99.90;;;;;;4990231;28;20137;-67
2021/12/26 07:14:51;;;;;;;5.90;3.78;;;-6.50;99.90;;;;;;4989022;28;20042;-66
2021/12/26 07:17:17;;;;;;;6.13;3.70;;;-6.50;99.90;;;;;;4988897;28;20057;-67
2021/12/26 07:19:43;;;;;;;8.73;4.18;;;-5.90;99.90;;;;;;4989671;28;20144;-68
2021/12/26 07:22:09;;;;;;;5.75;3.95;;;-6.40;99.90;;;;;;4989928;28;20146;-67
2021/12/26 07:24:34;;;;;;;7.43;3.70;;;-6.40;99.90;;;;;;4987305;28;20061;-67
2021/12/26 07:27:00;;;;;;;5.38;3.83;;;-6.40;99.90;;;;;;4989825;28;20043;-67
2021/12/26 07:29:25;;;;;;;5.05;3.53;;;-6.50;99.90;;;;;;4987969;28;20112;-67
2021/12/26 07:31:51;;;;;;;5.88;3.90;;;-6.40;99.90;;;;;;4989446;28;20581;-67
2021/12/26 07:34:17;;;;;;;5.40;3.75;;;-6.40;99.90;;;;;;4988110;28;20061;-67
2021/12/26 07:36:43;;;;;;;5.18;3.60;;;-6.40;99.90;;;;;;4989519;28;20046;-67
2021/12/26 07:39:08;;;;;;;7.50;4.13;;;-6.20;99.90;;;;;;4989435;28;20046;-66
2021/12/26 07:41:34;;;;;;;6.13;3.75;;;-6.40;99.90;;;;;;4988430;28;20052;-67
2021/12/26 07:44:00;;;;;;;8.70;3.80;;;-6.40;99.90;;;;;;5003797;28;20046;-66
2021/12/26 07:46:26;;;;;;;5.90;3.78;;;-6.40;99.90;;;;;;4988529;28;20409;-66
2021/12/26 07:48:52;;;;;;;6.65;3.97;;;-6.40;99.90;;;;;;4989572;28;20042;-66
2021/12/26 07:51:19;;;;;;;5.80;3.60;;;-6.40;99.90;;;;;;4989525;28;20407;-66
2021/12/26 07:53:46;;;;;;;5.85;3.75;;;-6.40;99.90;;;;;;4989312;28;20141;-67
2021/12/26 07:56:14;;;;;;;5.85;4.22;;;-6.40;99.90;;;;;;4985117;28;20042;-67
2021/12/26 07:58:40;;;;;;;10.35;3.90;;;-6.40;99.90;;;;;;4968945;28;20058;-66
2021/12/26 08:01:06;;;;;;;7.53;4.18;;;-6.30;99.90;;;;;;4988278;28;20038;-65
2021/12/26 08:03:35;;;;;;;7.43;4.15;;;-6.30;99.90;;;;;;4988480;28;20466;-67
2021/12/26 08:06:02;;;;;;;5.40;3.90;;;-6.20;99.90;;;;;;4987190;28;20081;-67
2021/12/26 08:08:28;;;;;;;8.32;4.22;;;-6.20;99.90;;;;;;4970994;28;20058;-67
2021/12/26 08:10:53;;;;;;;6.68;4.05;;;-6.20;99.90;;;;;;4989738;28;20077;-66
2021/12/26 08:13:19;;;;;;;7.80;4.22;;;-6.10;99.90;;;;;;4987302;28;20495;-66
2021/12/26 08:15:44;;;;;;;5.95;4.50;;;-6.20;99.90;;;;;;4990880;28;20046;-66
2021/12/26 08:18:13;;;;;;;7.72;4.45;;;-6.10;99.90;;;;;;4972145;28;20052;-66
2021/12/26 08:20:39;;;;;;;5.95;3.95;;;-6.20;99.90;;;;;;4988218;28;20081;-66
2021/12/26 08:23:05;;;;;;;6.03;4.15;;;-5.70;99.90;;;;;;4986932;28;20046;-66
2021/12/26 08:25:30;;;;;;;8.23;4.68;;;-6.20;99.90;;;;;;4989464;28;20034;-66
2021/12/26 08:27:56;;;;;;;7.03;4.50;;;-6.20;99.90;;;;;;4989630;28;20085;-67
2021/12/26 08:30:22;;;;;;;7.65;5.05;;;-6.10;99.90;;;;;;4987926;28;20077;-67
2021/12/26 08:32:52;;;;;;;6.50;4.28;;;-6.10;99.90;;;;;;4987914;28;21395;-66
2021/12/26 08:35:18;;;;;;;7.22;4.88;;;-6.00;99.90;;;;;;4989086;28;20046;-67
2021/12/26 08:37:46;;;;;;;7.88;4.40;;;-5.90;99.90;;;;;;4986450;28;20057;-67
2021/12/26 08:40:13;;;;;;;9.02;4.90;;;-5.40;99.90;;;;;;4988189;28;20053;-66
2021/12/26 08:42:39;;;;;;;8.10;4.70;;;-5.90;99.90;;;;;;4983421;28;20080;-67
2021/12/26 08:45:05;;;;;;;8.48;4.40;;;-5.50;99.90;;;;;;4990278;28;20046;-67
2021/12/26 08:47:31;;;;;;;9.40;5.13;;;-5.80;99.90;;;;;;4988130;28;20457;-67
2021/12/26 08:49:56;;;;;;;7.53;5.10;;;-5.80;99.90;;;;;;4988629;28;20050;-67
2021/12/26 08:52:22;;;;;;;8.32;4.68;;;-5.70;99.90;;;;;;4986567;28;20487;-67
2021/12/26 08:54:48;;;;;;;7.75;4.57;;;-5.70;99.90;;;;;;4989036;28;20480;-66
2021/12/26 08:57:15;;;;;;;7.63;4.82;;;-5.60;99.90;;;;;;4989818;28;20521;-66
2021/12/26 08:59:41;;;;;;;7.57;5.05;;;-5.50;99.90;;;;;;4988262;28;20054;-66
2021/12/26 09:02:08;;;;;;;7.72;4.70;;;-5.40;99.90;;;;;;4989227;28;20070;-67
2021/12/26 09:04:35;;;;;;;7.30;4.63;;;-5.30;99.90;;;;;;4988727;28;20055;-67
2021/12/26 09:07:02;;;;;;;8.20;4.72;;;-5.10;99.90;;;;;;4988113;28;20108;-66
2021/12/26 09:09:29;;;;;;;7.28;4.78;;;-5.00;99.90;;;;;;4987750;28;20380;-66
2021/12/26 09:11:58;;;;;;;10.68;5.50;;;-5.00;99.90;;;;;;4987810;28;20073;-66
2021/12/26 09:14:25;;;;;;;7.15;4.65;;;-4.90;99.90;;;;;;4986612;28;20533;-66
2021/12/26 09:16:50;;;;;;;7.38;5.05;;;-4.60;99.90;;;;;;4989274;28;20057;-67
2021/12/26 09:19:16;;;;;;;7.15;4.68;;;-4.50;99.90;;;;;;4986465;28;20054;-66
2021/12/26 09:21:42;;;;;;;7.38;4.75;;;-4.30;99.90;;;;;;4987342;28;20471;-66
2021/12/26 09:24:08;;;;;;;7.45;5.00;;;-4.20;99.90;;;;;;4988663;28;20054;-66
2021/12/26 09:26:33;;;;;;;6.75;4.60;;;-2.60;99.90;;;;;;4985607;28;20456;-65
2021/12/26 09:28:59;;;;;;;8.50;5.10;;;1.60;99.90;;;;;;4970235;28;20085;-66
2021/12/26 09:31:25;;;;;;;7.38;4.68;;;0.90;99.60;;;;;;4990485;28;20225;-66
2021/12/26 09:33:51;;;;;;;7.85;4.70;;;2.00;97.90;;;;;;4992442;28;20050;-65
2021/12/26 09:36:16;;;;;;;8.90;4.20;;;3.50;94.90;;;;;;4991566;28;20084;-66
2021/12/26 09:38:43;;;;;;;6.50;4.03;;;3.80;92.40;;;;;;4992205;28;20406;-66
2021/12/26 09:41:09;;;;;;;6.53;4.10;;;4.10;90.60;;;;;;4993049;28;20042;-66
2021/12/26 09:43:35;;;;;;;6.88;4.10;;;5.00;88.00;;;;;;4989932;28;20487;-67
2021/12/26 09:46:01;;;;;;;5.53;3.58;;;5.40;87.00;;;;;;4991919;28;20070;-66
2021/12/26 09:48:26;;;;;;;6.72;3.92;;;5.10;83.80;;;;;;4990091;28;20451;-66
2021/12/26 09:50:53;;;;;;;7.55;4.22;;;5.40;80.90;;;;;;4993226;28;20046;-66
2021/12/26 09:53:20;;;;;;;6.40;4.20;;;5.80;80.30;;;;;;4992463;28;20046;-67
2021/12/26 09:55:45;;;;;;;7.93;4.65;;;5.50;80.70;;;;;;4990205;28;20504;-67
2021/12/26 09:58:11;;;;;;;7.68;4.07;;;5.60;78.80;;;;;;4987287;28;20046;-67
2021/12/26 10:00:40;;;;;;;6.47;3.85;;;5.80;77.20;;;;;;4990282;28;20053;-67
2021/12/26 10:03:20;;;;;;;5.15;3.47;;;5.70;72.20;;;;;;4994386;28;20062;-67
2021/12/26 10:06:13;;;;;;;5.75;3.55;;;5.50;73.00;;;;;;4991376;28;20088;-67
2021/12/26 10:08:54;;;;;;;5.85;3.38;;;5.40;72.80;;;;;;4990437;28;20049;-67
2021/12/26 10:11:22;;;;;;;4.90;3.38;;;5.30;73.20;;;;;;4991080;28;20046;-67
2021/12/26 10:14:09;;;;;;;6.00;3.75;;;4.80;70.80;;;;;;4988006;28;20038;-67
2021/12/26 10:16:41;;;;;;;6.68;3.90;;;4.20;74.10;;;;;;4989573;28;20094;-67
2021/12/26 10:19:07;;;;;;;5.80;3.63;;;4.50;77.50;;;;;;4990547;28;20398;-68
2021/12/26 10:21:44;;;;;;;7.60;4.18;;;4.80;74.30;;;;;;4972094;28;20054;-67
2021/12/26 10:24:19;;;;;;;5.45;3.70;;;4.80;73.60;;;;;;4987607;28;20450;-67
2021/12/26 10:26:48;;;;;;;6.70;3.90;;;4.50;71.90;;;;;;4990320;28;20541;-67
2021/12/26 10:29:18;;;;;;;5.95;3.60;;;4.50;74.00;;;;;;4989993;28;20133;-68
2021/12/26 10:31:50;;;;;;;5.85;3.65;;;4.80;76.70;;;;;;4983206;28;20069;-69
2021/12/26 10:34:21;;;;;;;4.68;3.42;;;5.40;75.30;;;;;;4985712;28;20184;-69
2021/12/26 10:36:49;;;;;;;7.35;3.65;;;5.70;71.30;;;;;;4988752;28;20399;-68
2021/12/26 10:39:18;;;;;;;5.85;3.50;;;5.80;72.60;;;;;;4989572;28;20058;-67
2021/12/26 10:41:49;;;;;;;5.75;3.42;;;6.30;71.60;;;;;;4984252;28;20133;-68
2021/12/26 10:44:24;;;;;;;8.27;3.90;;;6.70;70.90;;;;;;4990305;28;20057;-68
2021/12/26 10:46:53;;;;;;;5.87;3.67;;;7.30;69.20;;;;;;4990117;28;20089;-68
2021/12/26 10:49:41;;;;;;;6.30;3.47;;;7.50;65.30;;;;;;4990074;28;20050;-69
2021/12/26 10:52:16;;;;;;;7.30;3.60;;;7.70;63.20;;;;;;4988211;28;20466;-68
2021/12/26 10:54:44;;;;;;;6.95;3.38;;;8.20;63.30;;;;;;4990448;28;20104;-69
2021/12/26 10:57:32;;;;;;;7.03;3.92;;;8.30;64.40;;;;;;4973093;28;20100;-66
2021/12/26 11:00:05;;;;;;;7.03;3.60;;;8.70;62.30;;;;;;4988426;28;20617;-66
2021/12/26 11:02:34;;;;;;;6.95;4.03;;;9.10;61.20;;;;;;4988393;28;20054;-65
2021/12/26 11:05:12;;;;;;;5.75;3.55;;;10.70;63.00;;;;;;4990869;28;20042;-66
2021/12/26 11:08:00;;;;;;;4.80;3.40;;;11.60;56.70;;;;;;4971479;28;20065;-66
2021/12/26 11:10:32;;;;;;;6.53;3.83;;;12.90;53.80;;;;;;4989862;28;20050;-67
2021/12/26 11:13:00;;;;;;;5.72;3.65;;;14.10;50.90;;;;;;4989776;28;20058;-66
2021/12/26 11:15:32;;;;;;;6.55;3.90;;;15.10;47.90;;;;;;4988917;28;20149;-67
2021/12/26 11:18:02;;;;;;;6.85;3.60;;;14.90;46.40;;;;;;4991190;28;20544;-66
2021/12/26 11:20:35;;;;;;;5.00;3.50;;;15.60;45.60;;;;;;4990732;28;20057;-67
2021/12/26 11:23:09;;;;;;;7.00;3.65;;;16.40;43.60;;;;;;4989403;28;20049;-66
2021/12/26 11:25:36;;;;;;;5.88;3.30;;;17.90;42.90;;;;;;4988543;28;20051;-67
2021/12/26 11:28:02;;;;;;;6.50;3.67;;;18.00;42.00;;;;;;4986954;28;20391;-68
2021/12/26 11:30:28;;;;;;;6.95;3.92;;;18.20;38.70;;;;;;4987895;28;20097;-67
2021/12/26 11:32:54;;;;;;;6.93;3.72;;;17.90;38.60;;;;;;4990444;28;20410;-67
2021/12/26 11:35:20;;;;;;;6.38;3.67;;;18.00;37.40;;;;;;4988762;28;20038;-67
2021/12/26 11:37:46;;;;;;;5.80;3.50;;;18.50;37.00;;;;;;4991566;28;20581;-67
2021/12/26 11:40:15;;;;;;;4.95;3.35;;;18.80;38.00;;;;;;4988845;28;20494;-68
2021/12/26 11:42:57;;;;;;;7.60;3.50;;;19.30;36.50;;;;;;4989214;28;20046;-67
2021/12/26 11:45:35;;;;;;;5.95;3.75;;;19.70;35.20;;;;;;4989649;28;20495;-67
2021/12/26 11:48:28;;;;;;;6.30;3.65;;;19.10;36.00;;;;;;4989024;28;20048;-67
2021/12/26 11:51:16;;;;;;;7.32;3.67;;;19.10;34.90;;;;;;4989071;28;20093;-67
2021/12/26 11:54:17;;;;;;;5.40;3.40;;;19.50;35.00;;;;;;4988562;28;20057;-67
2021/12/26 11:56:54;;;;;;;5.20;3.67;;;19.50;34.50;;;;;;4987596;28;20058;-67
2021/12/26 11:59:22;;;;;;;6.35;3.88;;;19.50;34.60;;;;;;4987627;28;20451;-67
2021/12/26 12:01:49;;;;;;;10.05;4.03;;;19.80;33.70;;;;;;4988343;28;20057;-67
2021/12/26 12:04:21;;;;;;;5.30;3.67;;;19.00;32.80;;;;;;4983296;28;20050;-68
2021/12/26 12:06:49;;;;;;;5.55;3.60;;;18.00;35.20;;;;;;4968485;28;20062;-68
2021/12/26 12:09:26;;;;;;;6.78;4.00;;;18.40;35.20;;;;;;4972309;28;20126;-68
2021/12/26 12:12:02;;;;;;;5.47;3.80;;;18.90;35.30;;;;;;4986789;28;20053;-67
2021/12/26 12:14:44;;;;;;;6.28;3.80;;;19.20;35.10;;;;;;4988131;28;20042;-67
2021/12/26 12:17:30;;;;;;;5.18;3.45;;;19.80;34.00;;;;;;4988456;28;20047;-68
2021/12/26 12:20:20;;;;;;;5.35;3.70;;;19.60;34.00;;;;;;4987898;28;20058;-67
2021/12/26 12:23:04;;;;;;;5.22;3.30;;;18.90;34.30;;;;;;4987125;28;20058;-67
2021/12/26 12:25:36;;;;;;;6.10;3.75;;;18.40;34.20;;;;;;4986784;28;20149;-66
2021/12/26 12:28:25;;;;;;;12.70;4.15;;;18.10;34.70;;;;;;4988074;28;20062;-74
2021/12/26 12:30:57;;;;;;;6.38;3.85;;;18.00;34.70;;;;;;4983777;28;20474;-75
2021/12/26 12:33:31;;;;;;;6.53;3.38;;;18.50;34.80;;;;;;4983213;28;20105;-75
2021/12/26 12:36:01;;;;;;;8.35;4.00;;;18.70;34.60;;;;;;4977402;28;20104;-75
2021/12/26 12:38:39;;;;;;;5.50;3.53;;;18.50;35.50;;;;;;4979542;28;20054;-76
2021/12/26 12:41:29;;;;;;;5.20;3.33;;;18.60;34.50;;;;;;4964842;28;20050;-76
2021/12/26 12:43:57;;;;;;;4.95;3.30;;;17.70;35.20;;;;;;4982989;28;20096;-76
2021/12/26 12:46:23;;;;;;;4.88;3.15;;;17.80;35.80;;;;;;4982007;28;20054;-74
2021/12/26 12:49:03;;;;;;;7.18;3.50;;;18.10;35.20;;;;;;4983073;28;20065;-76
2021/12/26 12:51:51;;;;;;;5.72;3.60;;;18.80;34.70;;;;;;4982228;28;20055;-76
2021/12/26 12:54:18;;;;;;;5.78;3.75;;;18.40;35.10;;;;;;4982945;28;20062;-75
2021/12/26 12:56:45;;;;;;;5.68;3.45;;;18.10;35.20;;;;;;4966717;28;20407;-76
2021/12/26 12:59:18;;;;;;;5.45;3.55;;;16.70;36.60;;;;;;4983642;28;20054;-76